createdAt,value
2018-07-27T00:01:42.157Z,8.90
2018-07-27T00:04:12.726Z,8.03
2018-07-27T00:06:43.118Z,7.97
2018-07-27T00:09:13.529Z,7.70
2018-07-27T00:11:43.992Z,8.33
2018-07-27T00:14:15.084Z,8.00
2018-07-27T00:16:45.504Z,8.27
2018-07-27T00:19:15.892Z,8.20
2018-07-27T00:21:46.217Z,7.97
2018-07-27T00:24:16.645Z,7.73
2018-07-27T00:26:47.021Z,7.27
2018-07-27T00:29:17.411Z,7.10
2018-07-27T00:31:47.821Z,7.20
2018-07-27T00:34:18.209Z,7.57
2018-07-27T00:36:48.595Z,7.90
2018-07-27T00:39:19.013Z,7.60
2018-07-27T00:41:49.398Z,7.27
2018-07-27T00:44:23.868Z,7.60
2018-07-27T00:46:54.289Z,7.70
2018-07-27T00:49:24.674Z,7.37
2018-07-27T00:51:56.102Z,7.10
2018-07-27T00:54:26.495Z,7.57
2018-07-27T00:56:56.892Z,7.17
2018-07-27T00:59:46.668Z,6.93
2018-07-27T01:02:17.068Z,7.70
2018-07-27T01:04:47.458Z,7.33
2018-07-27T01:07:17.879Z,7.37
2018-07-27T01:09:48.257Z,8.50
2018-07-27T01:12:18.653Z,9.13
2018-07-27T01:14:49.076Z,8.57
2018-07-27T01:17:19.461Z,8.60
2018-07-27T01:19:57.181Z,9.00
2018-07-27T01:22:27.567Z,8.67
2018-07-27T01:24:58.138Z,7.87
2018-07-27T01:27:28.558Z,8.63
2018-07-27T01:29:58.952Z,7.90
2018-07-27T01:32:29.345Z,7.53
2018-07-27T01:35:00.510Z,7.37
2018-07-27T01:37:30.890Z,7.67
2018-07-27T01:40:01.279Z,7.07
2018-07-27T01:42:32.367Z,8.47
2018-07-27T01:45:02.769Z,9.23
2018-07-27T01:47:33.162Z,8.57
2018-07-27T01:50:04.265Z,8.93
2018-07-27T01:52:34.669Z,8.47
2018-07-27T01:55:05.068Z,8.93
2018-07-27T01:57:35.490Z,8.60
2018-07-27T02:00:05.894Z,8.43
2018-07-27T02:02:36.279Z,7.40
2018-07-27T02:05:06.704Z,8.80
2018-07-27T02:07:37.085Z,7.93
2018-07-27T02:10:07.490Z,8.03
2018-07-27T02:12:40.720Z,8.73
2018-07-27T02:15:11.111Z,8.17
2018-07-27T02:17:43.586Z,9.13
2018-07-27T02:20:13.958Z,8.27
2018-07-27T02:22:47.424Z,7.87
2018-07-27T02:25:17.751Z,8.37
2018-07-27T02:27:48.944Z,8.10
2018-07-27T02:30:19.323Z,7.63
2018-07-27T02:32:49.695Z,8.20
2018-07-27T02:35:20.120Z,8.53
2018-07-27T02:38:10.916Z,8.37
2018-07-27T02:40:44.587Z,9.20
2018-07-27T02:43:14.986Z,8.63
2018-07-27T02:45:45.366Z,9.03
2018-07-27T02:48:19.879Z,9.03
2018-07-27T02:50:50.262Z,8.73
2018-07-27T02:53:20.655Z,8.00
2018-07-27T02:55:51.067Z,8.23
2018-07-27T02:58:21.474Z,8.73
2018-07-27T03:00:51.858Z,8.27
2018-07-27T03:03:22.285Z,9.77
2018-07-27T03:05:52.603Z,8.73
2018-07-27T03:08:22.994Z,8.80
2018-07-27T03:10:53.412Z,8.50
2018-07-27T03:13:23.844Z,9.07
2018-07-27T03:15:54.194Z,8.53
2018-07-27T03:18:25.816Z,8.70
2018-07-27T03:20:56.140Z,8.40
2018-07-27T03:23:26.529Z,8.43
2018-07-27T03:25:56.942Z,8.47
2018-07-27T03:28:27.331Z,8.73
2018-07-27T03:30:57.659Z,8.03
2018-07-27T03:33:28.065Z,8.67
2018-07-27T03:35:59.226Z,8.97
2018-07-27T03:38:29.625Z,8.43
2018-07-27T03:41:00.810Z,8.20
2018-07-27T03:43:31.218Z,8.47
2018-07-27T03:46:01.599Z,8.50
2018-07-27T03:48:32.006Z,8.03
2018-07-27T03:51:22.779Z,8.63
2018-07-27T03:56:40.918Z,8.90
2018-07-27T03:59:11.339Z,8.60
2018-07-27T04:01:41.717Z,9.10
2018-07-27T04:04:12.127Z,9.03
2018-07-27T04:06:42.546Z,9.00
2018-07-27T04:09:13.104Z,8.73
2018-07-27T04:11:43.492Z,9.03
2018-07-27T04:14:13.905Z,9.10
2018-07-27T04:16:45.051Z,9.03
2018-07-27T04:19:15.371Z,8.73
2018-07-27T04:21:45.791Z,8.37
2018-07-27T04:24:16.177Z,8.20
2018-07-27T04:26:54.545Z,9.90
2018-07-27T04:29:24.951Z,9.43
2018-07-27T04:31:55.344Z,9.90
2018-07-27T04:34:45.147Z,10.00
2018-07-27T04:37:15.540Z,10.27
2018-07-27T04:39:46.948Z,9.40
2018-07-27T04:42:19.079Z,9.40
2018-07-27T04:45:10.896Z,9.57
2018-07-27T04:47:41.962Z,10.03
2018-07-27T04:50:12.541Z,10.00
2018-07-27T04:52:43.122Z,9.27
2018-07-27T04:55:13.556Z,8.63
2018-07-27T04:57:44.118Z,8.87
2018-07-27T05:00:15.275Z,9.50
2018-07-27T05:02:45.694Z,8.93
2018-07-27T05:05:16.851Z,9.60
2018-07-27T05:07:47.254Z,9.43
2018-07-27T05:10:18.444Z,9.17
2018-07-27T05:12:48.841Z,10.17
2018-07-27T05:15:19.247Z,9.20
2018-07-27T05:17:50.416Z,9.43
2018-07-27T05:20:20.797Z,10.10
2018-07-27T05:22:51.197Z,9.90
2018-07-27T05:25:21.598Z,10.23
2018-07-27T05:27:51.998Z,9.67
2018-07-27T05:30:23.147Z,9.30
2018-07-27T05:32:54.348Z,10.17
2018-07-27T05:35:24.739Z,10.13
2018-07-27T05:37:55.119Z,9.73
2018-07-27T05:40:25.521Z,9.13
2018-07-27T05:42:58.968Z,10.00
2018-07-27T05:45:30.117Z,10.27
2018-07-27T05:48:00.545Z,8.97
2018-07-27T05:50:31.712Z,9.93
2018-07-27T05:53:03.119Z,9.00
2018-07-27T05:55:33.709Z,9.37
2018-07-27T05:58:05.057Z,9.80
2018-07-27T06:00:35.439Z,9.87
2018-07-27T06:03:05.795Z,11.03
2018-07-27T06:05:36.190Z,10.63
2018-07-27T06:08:06.506Z,9.57
2018-07-27T06:10:36.913Z,10.00
2018-07-27T06:13:07.319Z,10.43
2018-07-27T06:15:39.500Z,10.40
2018-07-27T06:18:11.133Z,9.23
2018-07-27T06:20:47.489Z,10.27
2018-07-27T06:23:17.922Z,9.90
2018-07-27T06:25:48.330Z,10.70
2018-07-27T06:28:19.481Z,9.13
2018-07-27T06:30:54.950Z,10.90
2018-07-27T06:33:25.356Z,10.50
2018-07-27T06:35:55.740Z,10.30
2018-07-27T06:38:26.188Z,10.87
2018-07-27T06:40:56.558Z,10.83
2018-07-27T06:43:26.962Z,10.13
2018-07-27T06:45:57.411Z,11.00
2018-07-27T06:48:27.801Z,10.30
2018-07-27T06:50:58.191Z,10.60
2018-07-27T06:53:28.606Z,10.07
2018-07-27T06:55:59.019Z,11.90
2018-07-27T06:58:29.422Z,10.60
2018-07-27T07:00:59.833Z,11.00
2018-07-27T07:03:31.023Z,10.40
2018-07-27T07:06:01.401Z,11.30
2018-07-27T07:08:31.814Z,11.03
2018-07-27T07:11:02.215Z,11.20
2018-07-27T07:13:39.954Z,10.23
2018-07-27T07:16:11.097Z,9.73
2018-07-27T07:18:41.486Z,11.17
2018-07-27T07:21:33.322Z,10.60
2018-07-27T07:24:03.724Z,11.67
2018-07-27T07:26:34.112Z,11.23
2018-07-27T07:29:05.292Z,10.17
2018-07-27T07:31:35.687Z,11.20
2018-07-27T07:34:06.835Z,10.57
2018-07-27T07:36:38.037Z,11.67
2018-07-27T07:39:08.379Z,10.63
2018-07-27T07:41:44.927Z,10.50
2018-07-27T07:44:19.409Z,10.63
2018-07-27T07:46:49.830Z,10.67
2018-07-27T07:49:20.286Z,10.93
2018-07-27T07:51:50.549Z,10.80
2018-07-27T07:54:22.058Z,10.23
2018-07-27T07:56:52.398Z,11.17
2018-07-27T07:59:24.847Z,10.40
2018-07-27T08:04:40.665Z,10.93
2018-07-27T08:07:11.077Z,9.87
2018-07-27T08:09:41.401Z,9.43
2018-07-27T08:12:11.987Z,11.50
2018-07-27T08:14:42.424Z,11.13
2018-07-27T08:17:13.034Z,10.50
2018-07-27T08:19:43.328Z,10.60
2018-07-27T08:22:13.754Z,10.37
2018-07-27T08:24:44.138Z,10.40
2018-07-27T08:27:14.522Z,10.70
2018-07-27T08:29:52.110Z,10.87
2018-07-27T08:32:24.550Z,10.87
2018-07-27T08:34:55.711Z,11.20
2018-07-27T08:37:26.122Z,11.23
2018-07-27T08:39:58.301Z,11.47
2018-07-27T08:42:29.356Z,9.43
2018-07-27T08:44:59.791Z,7.87
2018-07-27T08:47:30.362Z,6.60
2018-07-27T08:50:00.747Z,6.70
2018-07-27T08:52:31.812Z,7.13
2018-07-27T08:55:04.240Z,7.40
2018-07-27T08:57:34.637Z,7.33
2018-07-27T09:00:05.057Z,7.60
2018-07-27T09:02:35.454Z,7.50
2018-07-27T09:05:08.963Z,6.53
2018-07-27T09:07:39.301Z,6.60
2018-07-27T09:10:09.706Z,6.47
2018-07-27T09:12:40.055Z,6.07
2018-07-27T09:15:10.458Z,6.57
2018-07-27T09:17:42.882Z,6.83
2018-07-27T09:20:13.282Z,6.63
2018-07-27T09:22:43.701Z,6.90
2018-07-27T09:25:14.522Z,6.93
2018-07-27T09:27:44.466Z,6.63
2018-07-27T09:30:14.886Z,6.47
2018-07-27T09:32:48.360Z,7.37
2018-07-27T09:35:19.873Z,6.10
2018-07-27T09:37:51.222Z,6.83
2018-07-27T09:40:22.393Z,6.20
2018-07-27T09:42:52.794Z,6.10
2018-07-27T09:45:23.946Z,6.57
2018-07-27T09:47:55.079Z,6.53
2018-07-27T09:50:25.495Z,6.67
2018-07-27T09:52:55.876Z,6.97
2018-07-27T09:55:26.268Z,7.17
2018-07-27T09:57:57.482Z,7.03
2018-07-27T10:00:32.966Z,6.80
2018-07-27T10:03:04.148Z,7.57
2018-07-27T10:05:41.689Z,7.00
2018-07-27T10:08:12.105Z,7.03
2018-07-27T10:10:42.490Z,7.83
2018-07-27T10:13:16.995Z,7.43
2018-07-27T10:15:48.100Z,7.13
2018-07-27T10:18:18.488Z,7.23
2018-07-27T10:20:55.037Z,7.07
2018-07-27T10:23:25.435Z,7.50
2018-07-27T10:25:55.817Z,7.33
2018-07-27T10:28:48.614Z,7.37
2018-07-27T10:31:19.771Z,6.73
2018-07-27T10:33:51.107Z,6.80
2018-07-27T10:36:22.461Z,6.60
2018-07-27T10:38:53.637Z,6.83
2018-07-27T10:41:24.024Z,7.13
2018-07-27T10:43:54.426Z,7.00
2018-07-27T10:46:24.818Z,7.00
2018-07-27T10:48:55.197Z,6.40
2018-07-27T10:51:25.551Z,6.60
2018-07-27T10:53:55.876Z,7.33
2018-07-27T10:56:26.528Z,7.73
2018-07-27T10:58:56.668Z,7.50
2018-07-27T11:01:48.470Z,7.53
2018-07-27T11:04:18.888Z,8.00
2018-07-27T11:06:49.280Z,7.30
2018-07-27T11:09:19.661Z,7.20
2018-07-27T11:11:52.133Z,7.80
2018-07-27T11:14:22.515Z,7.33
2018-07-27T11:16:52.891Z,7.53
2018-07-27T11:19:23.496Z,7.03
2018-07-27T11:21:53.877Z,7.20
2018-07-27T11:24:24.949Z,7.10
2018-07-27T11:26:55.381Z,7.23
2018-07-27T11:29:26.538Z,7.73
2018-07-27T11:31:56.923Z,7.47
2018-07-27T11:34:27.333Z,6.80
2018-07-27T11:37:17.116Z,7.13
2018-07-27T11:39:47.484Z,7.23
2018-07-27T11:42:18.678Z,7.07
2018-07-27T11:44:49.017Z,7.43
2018-07-27T11:47:19.424Z,7.17
2018-07-27T11:49:54.095Z,7.77
2018-07-27T11:52:24.421Z,7.07
2018-07-27T11:54:54.836Z,7.77
2018-07-27T11:57:25.222Z,7.40
2018-07-27T11:59:55.796Z,7.20
2018-07-27T12:02:27.247Z,7.33
2018-07-27T12:04:57.639Z,7.37
2018-07-27T12:07:30.084Z,7.13
2018-07-27T12:10:00.668Z,6.93
2018-07-27T12:12:31.068Z,7.30
2018-07-27T12:15:07.554Z,7.63
2018-07-27T12:20:26.847Z,7.17
2018-07-27T12:22:59.270Z,7.27
2018-07-27T12:25:30.417Z,7.87
2018-07-27T12:28:01.591Z,7.10
2018-07-27T12:30:36.065Z,7.33
2018-07-27T12:33:07.250Z,7.17
2018-07-27T12:35:37.624Z,7.40
2018-07-27T12:38:07.938Z,7.27
2018-07-27T12:40:38.350Z,7.90
2018-07-27T12:43:08.738Z,7.17
2018-07-27T12:45:39.054Z,7.67
2018-07-27T12:48:10.663Z,7.47
2018-07-27T12:50:41.048Z,7.10
2018-07-27T12:53:11.444Z,7.23
2018-07-27T12:55:41.873Z,7.73
2018-07-27T12:58:13.032Z,7.73
2018-07-27T13:00:43.426Z,7.57
2018-07-27T13:03:13.859Z,7.67
2018-07-27T13:05:44.177Z,8.27
2018-07-27T13:08:14.568Z,7.63
2018-07-27T13:10:45.178Z,7.50
2018-07-27T13:13:16.379Z,7.80
2018-07-27T13:15:47.733Z,7.37
2018-07-27T13:18:18.164Z,7.27
2018-07-27T13:20:48.554Z,8.47
2018-07-27T13:23:18.948Z,8.00
2018-07-27T13:30:51.657Z,7.73
2018-07-27T13:33:22.836Z,8.07
2018-07-27T13:35:53.255Z,7.60
2018-07-27T13:38:25.701Z,7.33
2018-07-27T13:40:56.080Z,8.17
2018-07-27T13:43:47.498Z,8.03
2018-07-27T13:46:17.904Z,8.37
2018-07-27T13:48:48.301Z,8.20
2018-07-27T13:51:18.679Z,8.20
2018-07-27T13:53:51.135Z,8.00
2018-07-27T13:56:23.580Z,8.40
2018-07-27T13:58:53.963Z,7.80
2018-07-27T14:01:24.368Z,8.23
2018-07-27T14:03:56.799Z,7.57
2018-07-27T14:06:27.180Z,7.50
2018-07-27T14:09:01.755Z,8.20
2018-07-27T14:11:33.114Z,7.60
2018-07-27T14:14:03.514Z,7.37
2018-07-27T14:16:33.930Z,7.20
2018-07-27T14:19:04.494Z,7.67
2018-07-27T14:21:35.682Z,8.10
2018-07-27T14:24:06.054Z,7.60
2018-07-27T14:26:36.423Z,7.87
2018-07-27T14:29:07.059Z,7.90
2018-07-27T14:31:37.389Z,8.17
2018-07-27T14:34:07.784Z,8.53
2018-07-27T14:36:38.194Z,7.90
2018-07-27T14:39:08.618Z,7.40
2018-07-27T14:41:39.775Z,7.07
2018-07-27T14:44:10.865Z,7.73
2018-07-27T14:47:00.641Z,7.93
2018-07-27T14:49:38.353Z,8.13
2018-07-27T14:52:08.780Z,7.27
2018-07-27T14:54:39.155Z,7.57
2018-07-27T14:57:09.476Z,6.87
2018-07-27T14:59:40.659Z,7.93
2018-07-27T15:02:15.909Z,7.80
2018-07-27T15:05:08.608Z,7.80
2018-07-27T15:07:38.906Z,8.73
2018-07-27T15:10:10.321Z,8.23
2018-07-27T15:12:47.884Z,7.57
2018-07-27T15:15:18.324Z,8.53
2018-07-27T15:17:48.654Z,8.20
2018-07-27T15:20:19.073Z,7.73
2018-07-27T15:22:49.470Z,8.03
2018-07-27T15:25:20.123Z,8.60
2018-07-27T15:27:50.547Z,7.83
2018-07-27T15:30:21.694Z,7.53
2018-07-27T15:32:52.843Z,8.33
2018-07-27T15:35:23.259Z,7.87
2018-07-27T15:37:53.641Z,7.17
2018-07-27T15:40:24.019Z,7.53
2018-07-27T15:42:54.467Z,7.40
2018-07-27T15:45:27.563Z,7.83
2018-07-27T15:47:58.604Z,7.90
2018-07-27T15:50:29.021Z,7.67
2018-07-27T15:52:59.408Z,7.77
2018-07-27T15:55:29.855Z,7.93
2018-07-27T15:58:00.410Z,7.93
2018-07-27T16:00:30.796Z,7.73
2018-07-27T16:03:01.174Z,7.70
2018-07-27T16:05:34.653Z,7.77
2018-07-27T16:08:05.041Z,7.80
2018-07-27T16:10:35.412Z,8.10
2018-07-27T16:13:05.808Z,7.20
2018-07-27T16:15:37.624Z,7.90
2018-07-27T16:18:08.023Z,6.97
2018-07-27T16:20:38.424Z,7.20
2018-07-27T16:23:09.593Z,7.20
2018-07-27T16:25:39.979Z,7.60
2018-07-27T16:28:10.406Z,8.00
2018-07-27T16:30:40.793Z,7.40
2018-07-27T16:33:11.191Z,7.57
2018-07-27T16:38:33.127Z,7.90
2018-07-27T16:41:04.311Z,8.03
2018-07-27T16:43:41.792Z,8.13
2018-07-27T16:46:12.847Z,8.20
2018-07-27T16:48:43.241Z,7.63
2018-07-27T16:51:13.623Z,7.60
2018-07-27T16:53:44.008Z,7.60
2018-07-27T16:56:14.405Z,7.77
2018-07-27T16:58:44.779Z,7.77
2018-07-27T17:01:15.189Z,7.07
2018-07-27T17:03:45.585Z,7.60
2018-07-27T17:06:16.836Z,8.40
2018-07-27T17:08:47.928Z,6.93
2018-07-27T17:11:21.009Z,7.20
2018-07-27T17:13:52.432Z,8.30
2018-07-27T17:16:23.602Z,7.87
2018-07-27T17:18:56.048Z,7.73
2018-07-27T17:21:27.206Z,8.13
2018-07-27T17:23:57.613Z,7.47
2018-07-27T17:26:28.776Z,7.67
2018-07-27T17:28:59.134Z,7.43
2018-07-27T17:31:32.821Z,7.40
2018-07-27T17:34:03.130Z,7.90
2018-07-27T17:36:33.524Z,7.57
2018-07-27T17:39:03.942Z,7.73
2018-07-27T17:41:34.329Z,7.20
2018-07-27T17:44:04.720Z,7.90
2018-07-27T17:46:35.895Z,7.93
2018-07-27T17:49:06.275Z,7.93
2018-07-27T17:51:36.647Z,7.60
2018-07-27T17:54:07.058Z,7.13
2018-07-27T17:56:37.456Z,7.67
2018-07-27T17:59:07.834Z,6.57
2018-07-27T18:01:43.420Z,6.30
2018-07-27T18:04:13.764Z,6.63
2018-07-27T18:06:44.166Z,6.70
2018-07-27T18:09:14.581Z,6.70
2018-07-27T18:11:44.960Z,6.60
2018-07-27T18:14:16.125Z,6.30
2018-07-27T18:16:47.222Z,6.57
2018-07-27T18:19:18.264Z,6.60
2018-07-27T18:21:48.831Z,6.33
2018-07-27T18:24:19.249Z,6.73
2018-07-27T18:26:49.629Z,6.47
2018-07-27T18:29:20.022Z,6.40
2018-07-27T18:31:50.442Z,6.80
2018-07-27T18:34:20.825Z,6.80
2018-07-27T18:36:51.137Z,6.47
2018-07-27T18:39:21.560Z,6.40
2018-07-27T18:41:51.944Z,6.27
2018-07-27T18:44:22.326Z,6.77
2018-07-27T18:46:52.754Z,6.67
2018-07-27T18:49:23.148Z,7.07
2018-07-27T18:52:12.954Z,7.40
2018-07-27T18:54:43.337Z,7.20
2018-07-27T18:57:13.723Z,7.00
2018-07-27T18:59:44.132Z,6.80
2018-07-27T19:02:14.528Z,6.40
2018-07-27T19:28:20.316Z,7.20
2018-07-27T19:30:52.197Z,5.97
2018-07-27T19:33:22.552Z,6.70
2018-07-27T19:35:53.987Z,8.17
2018-07-27T19:38:24.387Z,9.03
2018-07-27T19:40:55.538Z,7.90
2018-07-27T19:43:25.976Z,8.40
2018-07-27T19:45:56.294Z,6.90
2018-07-27T19:48:26.685Z,7.27
2018-07-27T19:50:57.043Z,6.77
2018-07-27T19:53:28.188Z,7.20
2018-07-27T19:55:58.768Z,9.03
2018-07-27T19:58:29.194Z,8.10
2018-07-27T20:00:59.590Z,7.73
2018-07-27T20:03:29.981Z,7.77
2018-07-27T20:06:01.173Z,8.80
2018-07-27T20:08:31.562Z,8.10
2018-07-27T20:11:02.714Z,8.47
2018-07-27T20:13:33.138Z,7.73
2018-07-27T20:16:03.531Z,7.83
2018-07-27T20:18:33.921Z,8.13
2018-07-27T20:21:04.516Z,8.17
2018-07-27T20:23:35.604Z,8.33
2018-07-27T20:26:10.101Z,7.77
2018-07-27T20:28:40.509Z,7.83
2018-07-27T20:31:11.598Z,8.00
2018-07-27T20:33:46.118Z,7.93
2018-07-27T20:36:21.615Z,7.63
2018-07-27T20:38:52.811Z,7.97
2018-07-27T20:41:27.302Z,7.60
2018-07-27T20:43:57.760Z,7.80
2018-07-27T20:46:28.139Z,7.97
2018-07-27T20:48:59.295Z,7.87
2018-07-27T20:51:29.757Z,7.63
2018-07-27T20:54:00.105Z,7.10
2018-07-27T20:56:30.493Z,8.23
2018-07-27T20:59:01.060Z,8.07
2018-07-27T21:01:31.473Z,8.20
2018-07-27T21:04:21.301Z,8.07
2018-07-27T21:06:51.655Z,8.27
2018-07-27T21:09:22.057Z,8.17
2018-07-27T21:11:53.217Z,7.30
2018-07-27T21:14:23.638Z,7.73
2018-07-27T21:16:54.027Z,7.23
2018-07-27T21:19:24.427Z,8.27
2018-07-27T21:21:56.950Z,8.27
2018-07-27T21:24:27.264Z,7.57
2018-07-27T21:26:57.643Z,7.30
2018-07-27T21:29:29.085Z,7.53
2018-07-27T21:31:59.481Z,8.07
2018-07-27T21:34:30.641Z,7.07
2018-07-27T21:37:01.054Z,7.10
2018-07-27T21:39:31.451Z,7.40
2018-07-27T21:42:01.846Z,7.33
2018-07-27T21:44:32.248Z,7.93
2018-07-27T21:47:02.650Z,7.77
2018-07-27T21:49:33.028Z,6.63
2018-07-27T21:52:03.639Z,7.10
2018-07-27T21:54:34.021Z,7.23
2018-07-27T21:57:04.406Z,6.73
2018-07-27T21:59:34.820Z,6.80
2018-07-27T22:02:05.197Z,7.00
2018-07-27T22:04:35.594Z,7.80
2018-07-27T22:07:05.947Z,7.97
2018-07-27T22:09:36.402Z,7.37
2018-07-27T22:12:07.554Z,7.13
2018-07-27T22:14:38.733Z,7.13
2018-07-27T22:17:09.115Z,7.17
2018-07-27T22:19:39.511Z,7.77
2018-07-27T22:22:09.920Z,7.13
2018-07-27T22:24:43.391Z,6.70
2018-07-27T22:27:14.740Z,7.17
2018-07-27T22:29:45.371Z,6.90
2018-07-27T22:32:16.025Z,7.27
2018-07-27T22:34:47.362Z,7.50
2018-07-27T22:37:17.782Z,6.77
2018-07-27T22:39:48.178Z,6.00
2018-07-27T22:42:18.562Z,7.07
2018-07-27T22:44:53.069Z,6.77
2018-07-27T22:47:23.464Z,7.13
2018-07-27T22:49:54.494Z,6.67
2018-07-27T22:52:24.910Z,6.27
2018-07-27T22:54:55.240Z,7.07
2018-07-27T22:57:25.648Z,7.00
2018-07-27T23:00:02.212Z,6.23
2018-07-27T23:02:36.684Z,6.90
2018-07-27T23:05:07.024Z,6.60
2018-07-27T23:07:37.465Z,6.83
2018-07-27T23:10:07.945Z,6.27
2018-07-27T23:12:38.257Z,6.33
2018-07-27T23:15:08.695Z,7.10
2018-07-27T23:17:39.086Z,7.50
2018-07-27T23:20:10.506Z,6.97
2018-07-27T23:22:40.920Z,6.60
2018-07-27T23:25:12.074Z,6.87
2018-07-27T23:27:43.165Z,6.77
2018-07-27T23:33:01.316Z,5.73
2018-07-27T23:35:33.789Z,6.10
2018-07-27T23:38:08.265Z,6.47
2018-07-27T23:40:38.666Z,6.67
2018-07-27T23:43:09.027Z,6.43
2018-07-27T23:45:40.184Z,6.70
2018-07-27T23:48:11.251Z,6.47
2018-07-27T23:50:41.652Z,6.10
2018-07-27T23:53:12.025Z,6.00
2018-07-27T23:55:42.408Z,6.43
2018-07-27T23:58:12.824Z,6.47
